• Join FlightAware (Why Join?)
  • Login
  • US Flag 
07:08AM EDT


 

Airport Tracker/Info


-or-


 

Live Flight TrackerFlight Track Log ✈ QTR38 ✈ 14-Apr-2013 ✈ LIMC / MXP - OTBD / DOH

Flight Track Log - Related Links

Times and Time Zones

All times are in EDT time to prevent confusion due to time zone crossing. See the QTR38 flight status page for this flight to view local times or setup timezone preferences in your user account.

Time Position Orientation Groundspeed Altitude Reporting Facility
EDT Latitude Longitude Course Direction KTS MPH feet Rate Location/Type
04:32PM 45.6580 8.7290 359° North 173 199 1,900  Level FlightAware
04:32PM 45.6770 8.7290 360° North 171 197 2,700 1,800 Climbing FlightAware
04:32PM 45.6890 8.7290 360° North 174 200 3,100 1,500 Climbing FlightAware
04:33PM 45.7040 8.7290 360° North 176 203 3,600 1,020 Climbing FlightAware
04:33PM 45.7210 8.7400 24° Northeast 200 230 3,800 840 Climbing FlightAware
04:33PM 45.7300 8.7580 54° Northeast 220 253 4,100 960 Climbing FlightAware
04:33PM 45.7320 8.7730 79° East 229 264 4,200 960 Climbing FlightAware
04:34PM 45.7260 8.8060 105° East 260 299 4,600 1,980 Climbing FlightAware
04:34PM 45.7180 8.8460 106° East 266 306 5,700 2,580 Climbing FlightAware
04:35PM 45.7080 8.8940 107° East 274 315 7,000 2,580 Climbing FlightAware
04:35PM 45.6970 8.9490 106° East 282 325 8,300 2,700 Climbing FlightAware
04:36PM 45.6870 8.9990 106° East 289 333 9,500 2,040 Climbing FlightAware
04:36PM 45.6700 9.0840 106° East 319 367 10,700 1,260 Climbing FlightAware
04:37PM 45.6510 9.1720 107° East 362 417 11,300 1,500 Climbing FlightAware
04:38PM 45.6320 9.2670 106° East 373 429 12,700 2,280 Climbing FlightAware
04:38PM 45.6100 9.3740 106° East 373 429 14,600 2,220 Climbing FlightAware
04:39PM 45.5900 9.4690 107° East 379 436 15,900 1,980 Climbing FlightAware
04:40PM 45.5700 9.5650 107° East 381 438 17,300 1,740 Climbing FlightAware
04:40PM 45.5520 9.6500 107° East 395 455 18,100 1,320 Climbing FlightAware
04:41PM 45.5290 9.7670 106° East 413 475 19,100 1,380 Climbing FlightAware
04:42PM 45.5110 9.8740 103° East 419 482 20,100 1,680 Climbing FlightAware
04:42PM 45.4910 9.9910 104° East 418 481 21,500 1,500 Climbing FlightAware
04:43PM 45.4720 10.1010 104° East 428 493 22,300 1,200 Climbing FlightAware
04:44PM 45.4530 10.2110 104° East 434 499 23,100 1,260 Climbing FlightAware
04:45PM 45.4310 10.3370 104° East 438 504 24,100 1,260 Climbing FlightAware
04:45PM 45.4160 10.4240 104° East 443 510 24,700 1,080 Climbing FlightAware
04:46PM 45.3950 10.5380 105° East 450 518 25,400 1,020 Climbing FlightAware
04:46PM 45.3760 10.6490 104° East 454 522 26,100 1,020 Climbing FlightAware
04:47PM 45.3540 10.7690 105° East 460 529 26,800 960 Climbing FlightAware
04:48PM 45.3310 10.8970 104° East 465 535 27,500 900 Climbing FlightAware
04:48PM 45.3100 11.0160 104° East 470 541 28,100 780 Climbing FlightAware
04:49PM 45.2880 11.1330 105° East 477 549 28,600 840 Climbing FlightAware
04:50PM 45.2620 11.2730 105° East 479 551 29,300 1,080 Climbing FlightAware
04:50PM 45.2440 11.3720 104° East 475 547 30,100 1,080 Climbing FlightAware
04:51PM 45.2220 11.4920 105° East 473 544 30,800 960 Climbing FlightAware
04:52PM 45.1990 11.6140 105° East 473 544 31,500 1,080 Climbing FlightAware
04:53PM 45.1760 11.7320 105° East 467 537 32,300 1,020 Climbing FlightAware
04:53PM 45.1500 11.8690 105° East 466 536 33,100 840 Climbing FlightAware
04:54PM 45.1290 11.9830 105° East 467 537 33,500 660 Climbing FlightAware
04:55PM 45.0970 12.1470 105° East 469 540 34,100 840 Climbing FlightAware
04:55PM 45.0750 12.2660 105° East 463 533 34,800 600 Climbing FlightAware
04:56PM 45.0590 12.3950 100° East 457 526 35,000 120 Climbing FlightAware
04:57PM 45.0350 12.5120 106° East 465 535 35,000  Level FlightAware
04:58PM 44.9920 12.6210 119° Southeast 471 542 35,000  Level FlightAware
04:58PM 44.9450 12.7400 119° Southeast 466 536 35,000  Level FlightAware
04:59PM 44.9020 12.8480 119° Southeast 463 533 35,000  Level FlightAware
05:00PM 44.8610 12.9510 119° Southeast 462 532 35,000  Level FlightAware
05:00PM 44.8140 13.0680 119° Southeast 463 533 35,000  Level FlightAware
05:01PM 44.7730 13.1700 119° Southeast 465 535 35,000  Level FlightAware
05:02PM 44.7230 13.2930 120° Southeast 465 535 35,000  Level FlightAware
05:02PM 44.6790 13.4000 120° Southeast 469 540 35,000  Level FlightAware
05:03PM 44.6320 13.5170 119° Southeast 471 542 35,000 60 Level FlightAware
05:04PM 44.5870 13.6250 120° Southeast 472 543 35,100 60 Climbing FlightAware
05:05PM 44.5430 13.7330 120° Southeast 470 541 35,100 -120 Level FlightAware
05:05PM 44.4940 13.8500 120° Southeast 469 540 35,000 -120 Descending FlightAware
05:06PM 44.4500 13.9580 120° Southeast 468 539 35,000  Level FlightAware
05:07PM 44.4000 14.0770 120° Southeast 469 540 35,000  Level FlightAware
05:07PM 44.3560 14.1810 121° Southeast 469 540 35,000  Level FlightAware
05:08PM 44.3120 14.2860 120° Southeast 473 544 35,000  Level FlightAware
05:09PM 44.2630 14.4040 120° Southeast 473 544 35,000  Level FlightAware
05:09PM 44.2170 14.5110 121° Southeast 473 544 35,000  Level FlightAware
05:10PM 44.1670 14.6290 121° Southeast 472 543 35,000  Level FlightAware
05:11PM 44.1230 14.7320 121° Southeast 471 542 35,000  Level FlightAware
05:12PM 44.0780 14.8370 121° Southeast 472 543 35,000  Level FlightAware
05:12PM 44.0270 14.9560 121° Southeast 472 543 35,000  Level FlightAware
05:13PM 43.9840 15.0570 121° Southeast 473 544 35,000  Level FlightAware
05:14PM 43.9330 15.1740 121° Southeast 472 543 35,000  Level FlightAware
05:14PM 43.8930 15.2660 121° Southeast 472 543 35,000  Level FlightAware
05:15PM 43.8280 15.4160 121° Southeast 472 543 35,000  Level FlightAware
05:16PM 43.7840 15.5160 121° Southeast 472 543 35,000  Level FlightAware
05:17PM 43.7230 15.6550 121° Southeast 471 542 35,000  Level FlightAware
05:17PM 43.6740 15.7640 122° Southeast 473 544 35,000  Level FlightAware
05:18PM 43.6230 15.8800 121° Southeast 471 542 35,000  Level FlightAware
05:19PM 43.5610 16.0190 122° Southeast 474 545 35,000  Level FlightAware
05:20PM 43.5140 16.1250 121° Southeast 474 545 35,000  Level FlightAware
05:21PM 43.4630 16.2390 122° Southeast 471 542 35,000  Level FlightAware
05:22PM 43.3810 16.4200 122° Southeast 470 541 35,000  Level FlightAware
05:23PM 43.3200 16.5550 122° Southeast 470 541 35,000  Level FlightAware
05:25PM 43.2396 16.8435 111° Southeast  Level Estimated
05:25PM 43.1820 16.8570 111° Southeast 479 551 35,000  Level FlightAware
05:26PM 43.0570 17.1260 122° Southeast 470 541 35,000  Level FlightAware
05:27PM 43.0110 17.2260 122° Southeast 468 539 35,000  Level FlightAware
05:28PM 42.9170 17.4280 122° Southeast 479 551 35,000  Level FlightAware
05:29PM 42.8510 17.5680 123° Southeast 483 556 35,000  Level FlightAware
05:31PM 42.7470 17.7870 123° Southeast 482 555 35,000  Level FlightAware
05:31PM 42.6980 17.8910 123° Southeast 481 554 35,000  Level FlightAware
05:32PM 42.6480 17.9950 123° Southeast 483 556 35,000  Level FlightAware
05:33PM 42.5880 18.1210 123° Southeast 484 557 35,000  Level FlightAware
05:34PM 42.5340 18.2340 123° Southeast 485 558 35,000 60 Level FlightAware
05:34PM 42.4860 18.3300 124° Southeast 489 563 35,100  Climbing FlightAware
05:35PM 42.4220 18.4270 132° Southeast 499 574 35,000 -120 Descending FlightAware
05:36PM 42.3500 18.5270 134° Southeast 497 572 35,000  Level FlightAware
05:36PM 42.2850 18.6180 134° Southeast 495 570 35,000  Level FlightAware
05:37PM 42.2130 18.7170 134° Southeast 492 566 35,000  Level FlightAware
05:38PM 42.1500 18.8040 134° Southeast 490 564 35,000  Level FlightAware
05:38PM 42.0770 18.9030 135° Southeast 490 564 35,000  Level FlightAware
05:39PM 42.0130 18.9910 134° Southeast 492 566 35,000  Level FlightAware
05:40PM 41.9520 19.0750 134° Southeast 495 570 35,000 60 Level FlightAware
05:41PM 41.8760 19.1770 135° Southeast 499 574 35,100 60 Climbing FlightAware
05:41PM 41.8130 19.2630 134° Southeast 500 575 35,100  Level FlightAware
05:42PM 41.7350 19.3590 137° Southeast 509 586 35,100 -120 Level FlightAware
05:43PM 41.6630 19.4410 140° Southeast 510 587 35,000 -120 Descending FlightAware
05:43PM 41.5870 19.5170 143° Southeast 519 597 35,000  Level FlightAware
05:44PM 41.4920 19.5880 151° Southeast 526 605 35,000  Level FlightAware
05:45PM 41.4100 19.6460 152° Southeast 527 606 35,000  Level FlightAware
05:45PM 41.3190 19.7100 152° Southeast 528 608 35,000  Level FlightAware
05:46PM 41.2210 19.7790 152° Southeast 531 611 35,000  Level FlightAware
05:47PM 41.1340 19.8400 152° Southeast 531 611 35,000  Level FlightAware
05:48PM 41.0370 19.9080 152° Southeast 531 611 35,000 60 Level FlightAware
05:48PM 40.9520 19.9670 152° Southeast 530 610 35,100  Climbing FlightAware
05:49PM 40.8660 20.0270 152° Southeast 530 610 35,000 -120 Descending FlightAware
05:50PM 40.7780 20.0890 152° Southeast 530 610 35,000  Level FlightAware
05:50PM 40.7190 20.1290 153° Southeast 531 611 35,000  Level FlightAware
05:51PM 40.6410 20.1830 152° Southeast 532 612 35,000  Level FlightAware
05:52PM 40.5540 20.2430 152° Southeast 531 611 35,000  Level FlightAware
05:52PM 40.4450 20.3180 152° Southeast 531 611 35,000  Level FlightAware
05:53PM 40.3600 20.3760 153° Southeast 531 611 35,000  Level FlightAware
05:54PM 40.2740 20.4340 153° Southeast 533 613 35,000  Level FlightAware
05:55PM 40.1610 20.5110 152° Southeast 537 618 35,000 60 Level FlightAware
05:55PM 40.0810 20.5650 153° Southeast 537 618 35,100  Climbing FlightAware
05:56PM 39.9570 20.6490 153° Southeast 534 615 35,000 -60 Descending FlightAware
05:57PM 39.8520 20.7190 153° Southeast 532 612 35,000  Level FlightAware
05:58PM 39.7630 20.7790 153° Southeast 533 613 35,000  Level FlightAware
05:58PM 39.6440 20.8590 153° Southeast 526 605 35,000  Level FlightAware
05:59PM 39.5470 20.9260 152° Southeast 527 606 35,000  Level FlightAware
06:00PM 39.4700 20.9780 152° Southeast 527 606 35,000  Level FlightAware
06:00PM 39.3610 21.0520 152° Southeast 527 606 35,000  Level FlightAware
06:01PM 39.2720 21.1130 152° Southeast 528 608 35,000  Level FlightAware
06:02PM 39.1840 21.1720 153° Southeast 529 609 35,000  Level FlightAware
06:02PM 39.0990 21.2300 152° Southeast 530 610 35,000  Level FlightAware
06:03PM 38.9920 21.3010 153° Southeast 540 621 35,000  Level FlightAware
06:04PM 38.8880 21.3710 152° Southeast 540 621 35,000  Level FlightAware
06:05PM 38.8010 21.4290 153° Southeast 539 620 35,000  Level FlightAware
06:05PM 38.7040 21.4940 152° Southeast 538 619 35,000  Level FlightAware
06:06PM 38.6150 21.5520 153° Southeast 537 618 35,000  Level FlightAware
06:07PM 38.5150 21.6190 152° Southeast 537 618 35,000  Level FlightAware
06:07PM 38.4260 21.6770 153° Southeast 537 618 35,000  Level FlightAware
06:08PM 38.3300 21.7410 152° Southeast 536 617 35,000  Level FlightAware
06:09PM 38.2390 21.8000 153° Southeast 537 618 35,000  Level FlightAware
06:09PM 38.1520 21.8570 153° Southeast 536 617 35,000  Level FlightAware
06:10PM 38.0490 21.9240 153° Southeast 537 618 35,000  Level FlightAware
06:11PM 37.9600 21.9820 153° Southeast 535 616 35,000  Level FlightAware
06:12PM 37.8660 22.0430 153° Southeast 532 612 35,000  Level FlightAware
06:12PM 37.7770 22.1010 153° Southeast 532 612 35,000  Level FlightAware
06:13PM 37.6880 22.1580 153° Southeast 531 611 35,000  Level FlightAware
06:14PM 37.5930 22.2190 153° Southeast 532 612 35,000  Level FlightAware
06:14PM 37.5010 22.2780 153° Southeast 532 612 35,000  Level FlightAware
06:15PM 37.4120 22.3350 153° Southeast 533 613 35,000  Level FlightAware
06:16PM 37.3170 22.3950 153° Southeast 533 613 35,000  Level FlightAware
06:16PM 37.2270 22.4520 153° Southeast 533 613 35,000  Level FlightAware
06:17PM 37.1260 22.5160 153° Southeast 533 613 35,000  Level FlightAware
06:18PM 37.0370 22.5720 153° Southeast 533 613 35,000  Level FlightAware
06:19PM 36.9420 22.6320 153° Southeast 532 612 35,000  Level FlightAware
06:19PM 36.8540 22.6870 153° Southeast 532 612 35,000  Level FlightAware
06:20PM 36.7680 22.7400 154° Southeast 531 611 35,000  Level FlightAware
06:21PM 36.6620 22.8060 153° Southeast 529 609 35,000  Level FlightAware
06:21PM 36.5780 22.8580 154° Southeast 528 608 35,000  Level FlightAware
06:22PM 36.4890 22.9140 153° Southeast 526 605 35,000  Level FlightAware
06:23PM 36.3710 22.9880 153° Southeast 525 604 35,000  Level FlightAware
06:24PM 36.2980 23.0340 153° Southeast 525 604 35,000  Level FlightAware
06:24PM 36.2010 23.0910 155° Southeast 519 597 35,000  Level FlightAware
06:25PM 36.1120 23.1470 153° Southeast 519 597 35,000  Level FlightAware
06:26PM 36.0040 23.2120 154° Southeast 518 596 35,000  Level FlightAware
06:26PM 35.9180 23.2650 153° Southeast 520 598 35,000  Level FlightAware
06:27PM 35.8190 23.3250 154° Southeast 519 597 35,000  Level FlightAware
06:28PM 35.7450 23.3710 153° Southeast 519 597 35,000  Level FlightAware
06:29PM 35.6370 23.4350 154° Southeast 517 595 35,000  Level FlightAware
06:29PM 35.5700 23.4770 153° Southeast 517 595 35,000  Level FlightAware
06:30PM 35.4790 23.5340 153° Southeast 517 595 35,000  Level FlightAware
06:31PM 35.4070 23.5790 153° Southeast 517 595 35,000  Level FlightAware
06:31PM 35.3340 23.6240 153° Southeast 517 595 35,000  Level FlightAware
06:32PM 35.1630 23.7210 155° Southeast 517 595 35,000  Level FlightAware
06:33PM 35.0820 23.7730 152° Southeast 515 593 35,000  Level FlightAware
06:34PM 34.9950 23.8290 152° Southeast 515 593 35,000  Level FlightAware
06:34PM 34.9240 23.8760 152° Southeast 515 593 35,000  Level FlightAware
06:35PM 34.8520 23.9220 152° Southeast 515 593 35,000  Level FlightAware
06:36PM 34.7630 23.9800 152° Southeast 515 593 35,000  Level FlightAware
06:37PM 34.6910 24.0260 152° Southeast 515 593 35,000  Level FlightAware
06:37PM 34.6200 24.0720 152° Southeast 515 593 35,000  Level FlightAware
06:38PM 34.5480 24.1190 152° Southeast 515 593 35,000  Level FlightAware
06:39PM 34.4770 24.1650 152° Southeast 515 593 35,000  Level FlightAware
06:39PM 34.3870 24.2220 152° Southeast 515 593 35,000  Level FlightAware
06:40PM 34.3160 24.2690 151° Southeast 515 593 35,000  Level FlightAware
06:41PM 34.2440 24.3150 152° Southeast 515 593 35,000  Level FlightAware
06:41PM 34.1730 24.3610 152° Southeast 515 593 35,000  Level FlightAware
06:42PM 34.1010 24.4060 153° Southeast 515 593 35,000  Level FlightAware
06:43PM 34.0300 24.4520 152° Southeast 515 593 35,000 -120 Level FlightAware
06:45PM 33.9806 24.7042 103° East  Level Estimated
06:46PM 33.9527 24.8456 103° East  Level Estimated
06:47PM 33.9246 24.9868 103° East  Level Estimated
06:48PM 33.8963 25.1279 104° East  Level Estimated
06:49PM 33.8679 25.2689 104° East  Level Estimated
06:50PM 33.8394 25.4099 104° East  Level Estimated
06:51PM 33.8106 25.5507 104° East  Level Estimated
06:52PM 33.7817 25.6915 104° East  Level Estimated
06:53PM 33.7527 25.8321 104° East  Level Estimated
06:54PM 33.7235 25.9727 104° East  Level Estimated
06:55PM 33.6941 26.1131 104° East  Level Estimated
06:56PM 33.6646 26.2535 104° East  Level Estimated
06:57PM 33.6349 26.3938 104° East  Level Estimated
06:58PM 33.6051 26.5339 104° East  Level Estimated
06:59PM 33.5751 26.6740 104° East  Level Estimated
07:00PM 33.5449 26.8140 104° East  Level Estimated
07:01PM 33.5146 26.9539 105° East  Level Estimated
07:02PM 33.4841 27.0937 105° East  Level Estimated
07:03PM 33.4535 27.2333 105° East  Level Estimated
07:04PM 33.4227 27.3729 105° East  Level Estimated
07:05PM 33.3918 27.5124 105° East  Level Estimated
07:06PM 33.3606 27.6518 105° East  Level Estimated
07:07PM 33.3294 27.7911 105° East  Level Estimated
07:08PM 33.2980 27.9303 105° East  Level Estimated
07:09PM 33.2664 28.0694 105° East  Level Estimated
07:10PM 33.2347 28.2084 105° East  Level Estimated
07:11PM 33.2028 28.3472 105° East  Level Estimated
07:12PM 33.1708 28.4860 105° East  Level Estimated
07:13PM 33.1386 28.6247 105° East  Level Estimated
07:14PM 33.1063 28.7633 106° East  Level Estimated
07:15PM 33.0738 28.9018 106° East  Level Estimated
07:16PM 33.0412 29.0401 106° East  Level Estimated
07:17PM 33.0084 29.1784 106° East  Level Estimated
07:18PM 32.9754 29.3166 106° East  Level Estimated
07:19PM 32.9423 29.4546 106° East  Level Estimated
07:20PM 32.9091 29.5926 106° East  Level Estimated
07:21PM 32.8757 29.7305 106° East  Level Estimated
07:22PM 32.8421 29.8682 106° East  Level Estimated
07:23PM 32.8084 30.0059 106° East  Level Estimated
07:24PM 32.7746 30.1434 106° East  Level Estimated
07:25PM 32.7406 30.2808 106° East  Level Estimated
07:26PM 32.7064 30.4182 106° East  Level Estimated
07:27PM 32.6721 30.5554 107° East  Level Estimated
07:28PM 32.6377 30.6925 107° East  Level Estimated
07:29PM 32.6031 30.8296 107° East  Level Estimated
07:30PM 32.5683 30.9665 107° East  Level Estimated
07:31PM 32.5334 31.1033 107° East  Level Estimated
07:32PM 32.4984 31.2400 107° East  Level Estimated
07:33PM 32.4632 31.3766 107° East  Level Estimated
07:34PM 32.4278 31.5131 107° East  Level Estimated
07:35PM 32.3924 31.6494 107° East  Level Estimated
07:36PM 32.3567 31.7857 107° East  Level Estimated
07:37PM 32.3209 31.9219 107° East  Level Estimated
07:38PM 32.2850 32.0579 107° East  Level Estimated
07:39PM 32.2490 32.1939 107° East  Level Estimated
07:40PM 32.2127 32.3297 107° East  Level Estimated
07:41PM 32.1764 32.4655 108° East  Level Estimated
07:42PM 32.1399 32.6011 108° East  Level Estimated
07:43PM 32.1032 32.7366 108° East  Level Estimated
07:44PM 32.0664 32.8720 108° East  Level Estimated
07:45PM 32.0295 33.0073 108° East  Level Estimated
07:46PM 31.9924 33.1425 108° East  Level Estimated
07:47PM 31.9552 33.2776 108° East  Level Estimated
07:48PM 31.9178 33.4125 108° East  Level Estimated
07:49PM 31.8803 33.5474 108° East  Level Estimated
07:50PM 31.8426 33.6821 108° East  Level Estimated
07:51PM 31.8048 33.8168 108° East  Level Estimated
07:52PM 31.7669 33.9513 108° East  Level Estimated
07:53PM 31.7288 34.0857 108° East  Level Estimated
07:54PM 31.6906 34.2200 108° East  Level Estimated
07:55PM 31.6522 34.3542 109° East  Level Estimated
07:56PM 31.6137 34.4883 109° East  Level Estimated
07:57PM 31.5751 34.6223 109° East  Level Estimated
07:58PM 31.5363 34.7561 109° East  Level Estimated
07:59PM 31.4974 34.8899 109° East  Level Estimated
08:00PM 31.4583 35.0235 109° East  Level Estimated
08:01PM 31.4191 35.1571 109° East  Level Estimated
08:02PM 31.3798 35.2905 109° East  Level Estimated
08:03PM 31.3403 35.4238 109° East  Level Estimated
08:04PM 31.3007 35.5570 109° East  Level Estimated
08:05PM 31.2610 35.6901 109° East  Level Estimated
08:06PM 31.2211 35.8230 109° East  Level Estimated
08:07PM 31.1810 35.9559 109° East  Level Estimated
08:08PM 31.1409 36.0886 109° East  Level Estimated
08:09PM 31.1006 36.2213 110° East  Level Estimated
08:10PM 31.0602 36.3538 110° East  Level Estimated
08:11PM 31.0196 36.4862 110° East  Level Estimated
08:12PM 30.9789 36.6185 110° East  Level Estimated
08:13PM 30.9380 36.7506 110° East  Level Estimated
08:14PM 30.8971 36.8827 110° East  Level Estimated
08:15PM 30.8560 37.0147 110° East  Level Estimated
08:16PM 30.8147 37.1465 110° East  Level Estimated
08:17PM 30.7734 37.2782 110° East  Level Estimated
08:18PM 30.7319 37.4099 110° East  Level Estimated
08:19PM 30.6902 37.5414 110° East  Level Estimated
08:20PM 30.6485 37.6727 110° East  Level Estimated
08:21PM 30.6066 37.8040 110° East  Level Estimated
08:22PM 30.5645 37.9352 110° East  Level Estimated
08:23PM 30.5224 38.0662 110° East  Level Estimated
08:24PM 30.4800 38.1971 111° Southeast  Level Estimated
08:25PM 30.4376 38.3280 111° Southeast  Level Estimated
08:26PM 30.3951 38.4587 111° Southeast  Level Estimated
08:27PM 30.3524 38.5892 111° Southeast  Level Estimated
08:28PM 30.3095 38.7197 111° Southeast  Level Estimated
08:29PM 30.2666 38.8501 111° Southeast  Level Estimated
08:30PM 30.2235 38.9803 111° Southeast  Level Estimated
08:31PM 30.1803 39.1105 111° Southeast  Level Estimated
08:32PM 30.1370 39.2405 111° Southeast  Level Estimated
08:33PM 30.0935 39.3704 111° Southeast  Level Estimated
08:34PM 30.0499 39.5002 111° Southeast  Level Estimated
08:35PM 30.0062 39.6298 111° Southeast  Level Estimated
08:36PM 29.9624 39.7594 111° Southeast  Level Estimated
08:37PM 29.9184 39.8889 111° Southeast  Level Estimated
08:38PM 29.8743 40.0182 111° Southeast  Level Estimated
08:39PM 29.8301 40.1474 112° Southeast  Level Estimated
08:40PM 29.7858 40.2765 112° Southeast  Level Estimated
08:41PM 29.7413 40.4055 112° Southeast  Level Estimated
08:42PM 29.6967 40.5344 112° Southeast  Level Estimated
08:43PM 29.6520 40.6631 112° Southeast  Level Estimated
08:44PM 29.6071 40.7918 112° Southeast  Level Estimated
08:45PM 29.5622 40.9203 112° Southeast  Level Estimated
08:46PM 29.5171 41.0487 112° Southeast  Level Estimated
08:47PM 29.4718 41.1770 112° Southeast  Level Estimated
08:48PM 29.4265 41.3052 112° Southeast  Level Estimated
08:49PM 29.3811 41.4333 112° Southeast  Level Estimated
08:50PM 29.3355 41.5612 112° Southeast  Level Estimated
08:51PM 29.2898 41.6891 112° Southeast  Level Estimated
08:52PM 29.2439 41.8168 112° Southeast  Level Estimated
08:53PM 29.1980 41.9444 112° Southeast  Level Estimated
08:54PM 29.1519 42.0719 112° Southeast  Level Estimated
08:55PM 29.1057 42.1993 113° Southeast  Level Estimated
08:56PM 29.0594 42.3266 113° Southeast  Level Estimated
08:57PM 29.0130 42.4537 113° Southeast  Level Estimated
08:58PM 28.9664 42.5808 113° Southeast  Level Estimated
08:59PM 28.9198 42.7077 113° Southeast  Level Estimated
09:00PM 28.8730 42.8345 113° Southeast  Level Estimated
09:01PM 28.8261 42.9612 113° Southeast  Level Estimated
09:02PM 28.7790 43.0878 113° Southeast  Level Estimated
09:03PM 28.7319 43.2143 113° Southeast  Level Estimated
09:04PM 28.6846 43.3406 113° Southeast  Level Estimated
09:05PM 28.6373 43.4669 113° Southeast  Level Estimated
09:06PM 28.5898 43.5930 113° Southeast  Level Estimated
09:07PM 28.5421 43.7190 113° Southeast  Level Estimated
09:08PM 28.4944 43.8449 113° Southeast  Level Estimated
09:09PM 28.4466 43.9707 113° Southeast  Level Estimated
09:10PM 28.3986 44.0964 113° Southeast  Level Estimated
09:11PM 28.3505 44.2219 113° Southeast  Level Estimated
09:12PM 28.3023 44.3474 114° Southeast  Level Estimated
09:13PM 28.2540 44.4727 114° Southeast  Level Estimated
09:14PM 28.2056 44.5979 114° Southeast  Level Estimated
09:15PM 28.1571 44.7230 114° Southeast  Level Estimated
09:16PM 28.1084 44.8480 114° Southeast  Level Estimated
09:17PM 28.0597 44.9729 114° Southeast  Level Estimated
09:18PM 28.0108 45.0976 114° Southeast  Level Estimated
09:19PM 27.9618 45.2223 114° Southeast  Level Estimated
09:20PM 27.9127 45.3468 114° Southeast  Level Estimated
09:21PM 27.8635 45.4713 114° Southeast  Level Estimated
09:22PM 27.8142 45.5956 114° Southeast  Level Estimated
09:23PM 27.7648 45.7198 114° Southeast  Level Estimated
09:24PM 27.7152 45.8438 114° Southeast  Level Estimated
09:25PM 27.6656 45.9678 114° Southeast  Level Estimated
09:26PM 27.6158 46.0917 114° Southeast  Level Estimated
09:27PM 27.5660 46.2154 114° Southeast  Level Estimated
09:28PM 27.5160 46.3391 114° Southeast  Level Estimated
09:29PM 27.4659 46.4626 115° Southeast  Level Estimated
09:30PM 27.4157 46.5860 115° Southeast  Level Estimated
09:31PM 27.3654 46.7093 115° Southeast  Level Estimated
09:32PM 27.3150 46.8325 115° Southeast  Level Estimated
09:33PM 27.2644 46.9555 115° Southeast  Level Estimated
09:34PM 27.2138 47.0785 115° Southeast  Level Estimated
09:35PM 27.1631 47.2014 115° Southeast  Level Estimated
09:36PM 27.1122 47.3241 115° Southeast  Level Estimated
09:37PM 27.0613 47.4467 115° Southeast  Level Estimated
09:38PM 27.0102 47.5692 115° Southeast  Level Estimated
09:39PM 26.9590 47.6916 115° Southeast  Level Estimated
09:40PM 26.9078 47.8139 115° Southeast  Level Estimated
09:41PM 26.8564 47.9361 115° Southeast  Level Estimated
09:42PM 26.8049 48.0582 115° Southeast  Level Estimated
09:43PM 26.7533 48.1801 115° Southeast  Level Estimated
09:44PM 26.7016 48.3020 115° Southeast  Level Estimated
09:45PM 26.6498 48.4237 115° Southeast  Level Estimated
09:46PM 26.5979 48.5453 115° Southeast  Level Estimated
09:47PM 26.5459 48.6669 116° Southeast  Level Estimated
09:48PM 26.4938 48.7883 116° Southeast  Level Estimated
09:49PM 26.4416 48.9096 116° Southeast  Level Estimated
09:50PM 26.3893 49.0308 116° Southeast  Level Estimated
09:51PM 26.3369 49.1519 116° Southeast  Level Estimated
09:51PM 25.2650 50.7830 116° Southeast 378 435 14,300  Level FlightAware
09:51PM 25.2660 50.8670 89° East 349 402 13,700 -1,020 Descending FlightAware
09:52PM 25.2670 50.9360 89° East 336 387 12,900 -1,320 Descending FlightAware
09:53PM 25.2670 51.0050 90° East 330 380 12,000 -1,440 Descending FlightAware
09:54PM 25.2680 51.0800 89° East 326 375 10,900 -1,440 Descending FlightAware
09:54PM 25.2690 51.1450 89° East 318 366 10,000 -1,380 Descending FlightAware
09:55PM 25.2700 51.1940 89° East 311 358 9,300 -1,320 Descending FlightAware
09:55PM 25.2700 51.2330 90° East 302 348 8,800 -1,200 Descending FlightAware
09:56PM 25.2680 51.2760 93° East 297 342 8,200 -1,200 Descending FlightAware
09:56PM 25.2630 51.3230 97° East 295 339 7,600 -1,140 Descending FlightAware
09:57PM 25.2580 51.3620 98° East 293 337 7,200 -600 Descending FlightAware
09:57PM 25.2530 51.4050 97° East 295 339 7,100 -120 Descending FlightAware
09:57PM 25.2490 51.4430 97° East 292 336 7,100 -180 Level FlightAware
09:58PM 25.2420 51.4650 109° East 290 334 7,000 -420 Descending FlightAware
09:58PM 25.2290 51.4790 136° Southeast 279 321 6,900 -600 Descending FlightAware
09:58PM 25.2130 51.4870 156° South 263 303 6,700 -780 Descending FlightAware
09:59PM 25.1840 51.4990 159° South 239 275 6,400 -660 Descending FlightAware
09:59PM 25.1540 51.5110 160° South 220 253 6,100 -840 Descending FlightAware
10:00PM 25.1270 51.5220 160° South 207 238 5,600 -1,140 Descending FlightAware
10:00PM 25.1020 51.5320 160° South 209 241 5,100 -1,200 Descending FlightAware
10:01PM 25.0740 51.5430 160° South 211 243 4,500 -1,140 Descending FlightAware
10:01PM 25.0490 51.5530 160° South 208 239 4,100 -780 Descending FlightAware
10:01PM 25.0210 51.5630 162° South 219 252 3,800 -600 Descending FlightAware
10:02PM 24.9970 51.5720 161° South 218 251 3,600 -540 Descending FlightAware
10:02PM 24.9690 51.5950 143° Southeast 218 251 3,300 -480 Descending FlightAware
10:03PM 24.9770 51.6260 74° East 215 247 3,100 -360 Descending FlightAware
10:03PM 24.9920 51.6330 23° Northeast 202 232 3,000 -540 Descending FlightAware
10:04PM 25.0190 51.6410 15° North 204 235 2,700 -540 Descending FlightAware
10:04PM 25.0470 51.6480 13° North 185 213 2,500 -420 Descending FlightAware
10:05PM 25.0580 51.6510 14° North 179 206 2,400 -300 Descending FlightAware
10:05PM 25.0790 51.6450 345° North 159 183 2,300 -120 Descending FlightAware
10:05PM 25.1000 51.6360 339° North 156 180 2,300 -120 Level FlightAware
10:06PM 25.1180 51.6280 338° Northwest 156 180 2,200 -120 Descending FlightAware
10:06PM 25.1370 51.6200 339° North 155 178 2,200 -360 Level FlightAware
10:07PM 25.1560 51.6110 337° Northwest 144 166 1,900 -780 Descending FlightAware
10:07PM 25.1740 51.6040 341° North 126 145 1,500 -720 Descending FlightAware
10:08PM 25.1910 51.5960 337° Northwest 126 145 1,200 -360 Descending FlightAware
10:08PM 25.2040 51.5900 337° Northwest 126 145 1,200 -660 Level FlightAware
10:09PM 25.2210 51.5830 340° North 124 143 600 -1,020 Descending FlightAware
10:09PM 25.2340 51.5770 337° Northwest 123 142 300 -360 Descending FlightAware
10:10PM 25.2480 51.5710 339° North 124 143 300  Level FlightAware
10:12PM 25.2611 51.5651 338° Northwest  Level Estimated
10:13PM 25.2611 51.5651 324° Northwest  Level Estimated
10:14PM 25.2611 51.5651 324° Northwest  Level Estimated
10:15PM 25.2611 51.5651 324° Northwest  Level Estimated
10:16PM 25.2611 51.5651 324° Northwest  Level Estimated
10:17PM 25.2611 51.5651 324° Northwest  Level Estimated
10:18PM 25.2611 51.5651 324° Northwest  Level Estimated